Time;durP1;ratioP1;P1;durP2;ratioP2;P2;SDS_P1;SDS_P2;PMS_P1;PMS_P2;Temp;Humidity;BMP_temperature;BMP_pressure;BME280_temperature;BME280_humidity;BME280_pressure;Samples;Min_cycle;Max_cycle;Signal;HPM_P1;HPM_P2
2023/06/20 00:02:25;;;;;;;;;;;;;;;19.00;100.00;100314.94;5573025;31;33954;-68
2023/06/20 00:05:33;;;;;;;10.23;7.50;;;;;;;18.93;100.00;100310.66;5574336;31;33806;-69
2023/06/20 00:08:42;;;;;;;;;;;;;;;18.84;100.00;100312.81;5578309;31;33983;-69
2023/06/20 00:11:51;;;;;;;10.85;7.47;;;;;;;18.75;100.00;100314.16;5573040;31;34085;-67
2023/06/20 00:14:55;;;;;;;13.70;7.75;;;;;;;18.70;100.00;100319.38;5587392;31;33990;-67
2023/06/20 00:18:02;;;;;;;9.65;7.40;;;;;;;18.86;100.00;100320.69;5587439;31;33644;-67
2023/06/20 00:21:09;;;;;;;9.40;7.15;;;;;;;18.85;100.00;100321.72;5588511;31;33787;-67
2023/06/20 00:24:16;;;;;;;9.70;7.80;;;;;;;18.77;100.00;100320.16;5588195;31;33814;-68
2023/06/20 00:27:22;;;;;;;8.75;7.22;;;;;;;18.77;100.00;100330.91;5588112;31;33834;-68
2023/06/20 00:30:31;;;;;;;10.27;7.70;;;;;;;18.74;100.00;100325.94;5588128;31;33691;-68
2023/06/20 00:33:38;;;;;;;8.70;7.50;;;;;;;18.65;100.00;100328.09;5588064;31;33793;-67
2023/06/20 00:36:44;;;;;;;13.82;7.28;;;;;;;18.71;100.00;100326.41;5588089;31;33813;-68
2023/06/20 00:39:51;;;;;;;8.95;7.37;;;;;;;18.71;100.00;100334.47;5587215;31;33759;-68
2023/06/20 00:42:58;;;;;;;10.23;7.03;;;;;;;18.69;100.00;100328.47;5588080;31;34681;-68
2023/06/20 00:46:07;;;;;;;16.00;7.55;;;;;;;18.66;100.00;100324.38;5587912;31;33848;-68
2023/06/20 00:49:14;;;;;;;30.58;8.70;;;;;;;18.58;100.00;100326.53;5587839;31;34472;-67
2023/06/20 00:52:25;;;;;;;11.15;7.32;;;;;;;18.56;100.00;100328.63;5587823;31;33668;-68
2023/06/20 00:55:33;;;;;;;19.85;7.47;;;;;;;18.59;100.00;100334.38;5587864;31;33770;-68
2023/06/20 00:58:39;;;;;;;12.18;7.10;;;;;;;18.59;100.00;100329.00;5587815;31;34340;-68
2023/06/20 01:01:46;;;;;;;9.60;6.78;;;;;;;18.55;100.00;100341.22;5588097;31;34062;-68
2023/06/20 01:04:52;;;;;;;10.32;6.80;;;;;;;18.51;100.00;100339.16;5587667;31;33810;-68
2023/06/20 01:08:09;;;;;;;10.20;6.55;;;;;;;18.48;100.00;100340.44;5587791;31;35074;-68
2023/06/20 01:11:26;;;;;;;9.25;6.75;;;;;;;18.33;100.00;100339.13;5587788;31;33835;-68
2023/06/20 01:14:45;;;;;;;7.57;6.32;;;;;;;18.25;100.00;100337.50;5587768;31;34474;-68
2023/06/20 01:18:04;;;;;;;9.00;6.68;;;;;;;18.26;100.00;100344.53;5587816;31;33593;-68
2023/06/20 01:21:29;;;;;;;9.17;6.57;;;;;;;18.32;100.00;100348.22;5586815;31;33419;-68
2023/06/20 01:24:36;;;;;;;9.18;6.53;;;;;;;18.22;100.00;100352.22;5587593;31;34093;-68
2023/06/20 01:28:04;;;;;;;10.73;6.87;;;;;;;18.23;100.00;100345.81;5584901;31;33654;-68
2023/06/20 01:31:14;;;;;;;7.45;6.68;;;;;;;18.19;100.00;100341.94;5587466;31;33708;-67
2023/06/20 01:34:27;;;;;;;11.55;6.93;;;;;;;18.24;100.00;100338.59;5586430;31;34785;-67
2023/06/20 01:37:38;;;;;;;9.50;6.60;;;;;;;18.31;100.00;100342.03;5587536;31;33621;-67
2023/06/20 01:40:50;;;;;;;10.35;6.50;;;;;;;18.32;100.00;100338.31;5586676;31;33577;-68
2023/06/20 01:43:59;;;;;;;8.25;7.20;;;;;;;18.24;100.00;100334.03;5587352;31;34434;-67
2023/06/20 01:47:08;;;;;;;9.75;6.85;;;;;;;18.18;100.00;100329.53;5586720;31;33553;-67
2023/06/20 01:50:18;;;;;;;8.83;6.47;;;;;;;18.12;100.00;100329.56;5587257;31;33957;-68
2023/06/20 01:53:32;;;;;;;11.43;6.53;;;;;;;18.08;100.00;100329.19;5587168;31;34481;-67
2023/06/20 01:56:43;;;;;;;7.90;6.43;;;;;;;18.02;100.00;100329.22;5587261;31;33929;-67
2023/06/20 01:59:53;;;;;;;9.10;6.32;;;;;;;17.93;100.00;100333.22;5587392;31;33544;-67
2023/06/20 02:03:01;;;;;;;9.98;6.90;;;;;;;17.77;100.00;100327.31;5587680;31;33878;-68
2023/06/20 02:06:11;;;;;;;8.93;6.93;;;;;;;17.74;100.00;100325.09;5587469;31;33894;-68
2023/06/20 02:09:19;;;;;;;11.98;6.62;;;;;;;17.73;100.00;100328.81;5587287;31;34592;-67
2023/06/20 02:12:28;;;;;;;10.88;6.57;;;;;;;17.80;100.00;100329.59;5587127;31;34498;-67
2023/06/20 02:15:34;;;;;;;8.32;6.80;;;;;;;17.90;100.00;100329.13;5587045;31;34531;-67
2023/06/20 02:18:42;;;;;;;8.75;7.00;;;;;;;17.85;100.00;100333.50;5587220;31;33819;-68
2023/06/20 02:21:50;;;;;;;9.68;6.57;;;;;;;17.77;100.00;100335.37;5587195;31;33817;-67
2023/06/20 02:25:04;;;;;;;9.30;6.65;;;;;;;17.70;100.00;100339.16;5587083;31;35414;-68
2023/06/20 02:28:14;;;;;;;8.27;6.90;;;;;;;17.69;100.00;100338.31;5586973;31;34777;-68
2023/06/20 02:31:24;;;;;;;10.10;6.82;;;;;;;17.66;100.00;100346.81;5586603;31;34498;-68
2023/06/20 02:34:35;;;;;;;9.45;6.70;;;;;;;17.59;100.00;100346.00;5586926;31;34244;-68
2023/06/20 02:37:45;;;;;;;8.70;7.32;;;;;;;17.60;100.00;100349.53;5586950;31;34172;-67
2023/06/20 02:40:52;;;;;;;8.60;6.53;;;;;;;17.65;100.00;100350.53;5586146;31;33839;-68
2023/06/20 02:43:56;;;;;;;10.45;6.80;;;;;;;17.62;100.00;100344.78;5587003;31;34593;-68
2023/06/20 02:47:28;;;;;;;9.70;6.95;;;;;;;17.67;100.00;100350.31;5587255;31;33595;-67
2023/06/20 02:50:44;;;;;;;7.25;6.32;;;;;;;17.63;100.00;100344.53;5586982;31;34386;-67
2023/06/20 02:54:23;;;;;;;8.35;7.10;;;;;;;17.55;100.00;100347.44;5586815;31;34133;-68
2023/06/20 02:57:34;;;;;;;9.45;7.00;;;;;;;17.59;100.00;100347.88;5586957;31;33810;-68
2023/06/20 03:00:49;;;;;;;10.15;7.50;;;;;;;17.56;100.00;100342.91;5585933;31;33712;-68
2023/06/20 03:04:00;;;;;;;9.95;7.00;;;;;;;17.52;100.00;100345.19;5586617;31;33859;-67
2023/06/20 03:07:08;;;;;;;9.35;7.22;;;;;;;17.52;100.00;100357.78;5586257;31;33893;-68
2023/06/20 03:10:18;;;;;;;10.73;7.32;;;;;;;17.54;100.00;100361.06;5586012;31;33775;-67
2023/06/20 03:13:29;;;;;;;8.35;6.68;;;;;;;17.57;100.00;100352.59;5586484;31;34621;-68
2023/06/20 03:16:37;;;;;;;9.32;7.40;;;;;;;17.52;100.00;100349.75;5586459;31;34934;-68
2023/06/20 03:19:45;;;;;;;8.82;6.78;;;;;;;17.46;100.00;100350.59;5586359;31;34696;-68
2023/06/20 03:22:54;;;;;;;11.88;7.03;;;;;;;17.54;100.00;100358.38;5580700;31;33783;-68
2023/06/20 03:26:02;;;;;;;12.32;7.03;;;;;;;17.56;100.00;100367.88;5574034;31;33640;-68
2023/06/20 03:29:07;;;;;;;8.10;6.93;;;;;;;17.55;100.00;100379.63;5586269;31;34284;-68
2023/06/20 03:32:17;;;;;;;10.00;7.32;;;;;;;17.53;100.00;100376.31;5586096;31;33859;-68
2023/06/20 03:35:24;;;;;;;14.55;6.93;;;;;;;17.52;100.00;100379.25;5586215;31;34425;-68
2023/06/20 03:38:33;;;;;;;10.60;6.70;;;;;;;17.59;100.00;100390.78;5586238;31;33541;-68
2023/06/20 03:41:41;;;;;;;8.27;6.72;;;;;;;17.70;100.00;100377.53;5586072;31;33990;-68
2023/06/20 03:44:46;;;;;;;12.68;6.93;;;;;;;17.78;100.00;100382.66;5586368;31;34199;-68
2023/06/20 03:47:53;;;;;;;10.40;6.70;;;;;;;17.85;100.00;100388.00;5588085;31;34425;-68
2023/06/20 03:50:59;;;;;;;9.57;6.57;;;;;;;17.95;100.00;100390.19;5586209;31;33150;-68
2023/06/20 03:54:05;;;;;;;9.63;7.45;;;;;;;18.09;100.00;100397.97;5588477;31;34062;-68
2023/06/20 03:57:11;;;;;;;12.63;6.93;;;;;;;18.04;100.00;100395.09;5572650;31;33710;-68
2023/06/20 04:00:21;;;;;;;28.52;8.50;;;;;;;18.04;100.00;100394.28;5588350;31;33849;-68
2023/06/20 04:03:29;;;;;;;11.75;7.35;;;;;;;18.05;100.00;100398.62;5586866;31;34787;-68
2023/06/20 04:06:38;;;;;;;11.50;7.45;;;;;;;18.12;100.00;100402.87;5568643;32;34564;-67
2023/06/20 04:09:45;;;;;;;12.77;7.00;;;;;;;18.18;100.00;100401.22;5568647;32;34156;-68
2023/06/20 04:12:50;;;;;;;11.12;7.35;;;;;;;18.29;100.00;100403.22;5568491;32;34026;-68
2023/06/20 04:15:56;;;;;;;8.23;6.53;;;;;;;18.38;100.00;100404.59;5567810;32;33877;-68
2023/06/20 04:19:03;;;;;;;12.37;7.10;;;;;;;18.50;100.00;100404.69;5568520;32;34632;-68
2023/06/20 04:22:12;;;;;;;12.88;7.20;;;;;;;18.57;100.00;100402.81;5573243;31;33983;-68
2023/06/20 04:25:19;;;;;;;10.65;7.15;;;;;;;18.71;100.00;100403.50;5570226;31;33611;-68
2023/06/20 04:28:24;;;;;;;10.48;7.07;;;;;;;18.92;100.00;100411.19;5568471;32;34579;-68
2023/06/20 04:31:30;;;;;;;12.05;6.90;;;;;;;19.09;100.00;100407.69;5567902;32;33681;-68
2023/06/20 04:34:37;;;;;;;9.75;7.18;;;;;;;19.37;100.00;100401.81;5567210;32;34304;-69
2023/06/20 04:37:43;;;;;;;10.32;6.95;;;;;;;19.48;100.00;100411.03;5568701;32;33805;-70
2023/06/20 04:40:51;;;;;;;11.45;6.90;;;;;;;19.58;100.00;100405.94;5567589;32;33660;-69
2023/06/20 04:44:00;;;;;;;8.70;6.60;;;;;;;19.63;100.00;100403.41;5568164;32;34018;-70
2023/06/20 04:47:06;;;;;;;8.20;6.80;;;;;;;19.66;100.00;100404.81;5568213;32;33812;-70
2023/06/20 04:50:12;;;;;;;12.55;7.18;;;;;;;19.60;100.00;100406.56;5568390;32;33616;-69
2023/06/20 04:53:19;;;;;;;13.20;7.07;;;;;;;19.46;100.00;100392.41;5567833;32;33928;-67
2023/06/20 04:56:25;;;;;;;11.95;6.93;;;;;;;19.49;100.00;100394.66;5572523;31;34015;-69
2023/06/20 04:59:35;;;;;;;9.70;7.50;;;;;;;19.58;100.00;100394.34;5569391;31;33852;-70
2023/06/20 05:02:44;;;;;;;9.95;7.05;;;;;;;19.65;100.00;100401.31;5580167;31;33945;-69
2023/06/20 05:05:50;;;;;;;14.75;7.03;;;;;;;19.87;100.00;100404.31;5573318;31;33810;-70
2023/06/20 05:08:54;;;;;;;10.32;6.87;;;;;;;19.81;100.00;100407.91;5580414;31;33806;-70
2023/06/20 05:11:59;;;;;;;13.18;7.15;;;;;;;19.63;100.00;100408.78;5586297;31;33817;-70
2023/06/20 05:15:09;;;;;;;9.68;7.15;;;;;;;19.72;100.00;100407.41;5586532;31;34931;-69
2023/06/20 05:18:15;;;;;;;15.15;7.30;;;;;;;20.03;100.00;100409.09;5587238;31;34730;-70
2023/06/20 05:21:20;;;;;;;9.25;7.40;;;;;;;19.95;100.00;100425.53;5587488;31;33646;-69
2023/06/20 05:24:25;;;;;;;8.80;6.97;;;;;;;19.94;100.00;100426.63;5586816;31;33849;-68
2023/06/20 05:27:31;;;;;;;8.95;6.90;;;;;;;19.86;100.00;100426.91;5586533;31;33794;-70
2023/06/20 05:30:36;;;;;;;11.63;6.45;;;;;;;19.84;100.00;100424.47;5587113;31;33663;-70
2023/06/20 05:33:42;;;;;;;9.82;6.78;;;;;;;20.00;100.00;100432.94;5586164;31;33614;-70
2023/06/20 05:36:50;;;;;;;12.20;6.70;;;;;;;20.19;100.00;100427.28;5587297;31;34802;-70
2023/06/20 05:39:56;;;;;;;11.27;7.12;;;;;;;20.43;100.00;100430.09;5567795;31;34544;-67
2023/06/20 05:43:05;;;;;;;9.13;6.90;;;;;;;20.80;100.00;100428.84;5567033;32;34833;-68
2023/06/20 05:46:10;;;;;;;14.20;7.32;;;;;;;20.85;100.00;100425.44;5567168;31;35043;-69
2023/06/20 05:49:15;;;;;;;12.68;6.97;;;;;;;20.49;100.00;100429.97;5583224;31;33885;-68
2023/06/20 05:52:20;;;;;;;12.95;7.30;;;;;;;20.47;100.00;100429.41;5581977;31;33791;-69
2023/06/20 05:55:25;;;;;;;16.33;7.78;;;;;;;20.67;100.00;100432.56;5581738;31;34290;-68
2023/06/20 05:58:30;;;;;;;16.15;7.65;;;;;;;20.81;100.00;100430.50;5583653;31;32398;-69
2023/06/20 06:01:36;;;;;;;15.18;7.55;;;;;;;20.94;100.00;100429.44;5585386;31;34086;-68
2023/06/20 06:04:43;;;;;;;14.63;6.93;;;;;;;21.30;100.00;100426.50;5585194;31;34304;-68
2023/06/20 06:07:48;;;;;;;16.10;7.62;;;;;;;21.51;100.00;100433.16;5584739;31;34330;-69
2023/06/20 06:10:52;;;;;;;21.05;7.70;;;;;;;21.44;100.00;100435.19;5576756;31;33624;-70
2023/06/20 06:13:56;;;;;;;11.95;7.97;;;;;;;21.61;100.00;100438.78;5583548;31;33837;-69
2023/06/20 06:17:01;;;;;;;9.43;7.70;;;;;;;21.46;100.00;100439.28;5585807;31;33950;-69
2023/06/20 06:20:12;;;;;;;13.10;7.50;;;;;;;21.76;100.00;100449.06;5586186;31;33898;-69
2023/06/20 06:23:16;;;;;;;10.88;7.40;;;;;;;22.02;100.00;100457.50;5586532;31;35751;-69
2023/06/20 06:26:21;;;;;;;15.82;7.75;;;;;;;21.89;100.00;100455.03;5586896;31;33834;-68
2023/06/20 06:29:28;;;;;;;12.55;8.10;;;;;;;21.95;100.00;100453.28;5586437;31;33959;-68
2023/06/20 06:32:33;;;;;;;14.82;7.60;;;;;;;21.87;100.00;100451.75;5576209;31;33255;-69
2023/06/20 06:35:40;;;;;;;8.88;7.50;;;;;;;22.17;100.00;100453.44;5569792;31;33919;-69
2023/06/20 06:38:49;;;;;;;13.48;7.47;;;;;;;22.31;100.00;100454.78;5577454;31;34035;-69
2023/06/20 06:41:53;;;;;;;16.57;7.00;;;;;;;22.49;100.00;100455.38;5571021;31;33673;-68
2023/06/20 06:44:57;;;;;;;15.43;7.50;;;;;;;22.65;100.00;100459.19;5581387;31;34181;-69
2023/06/20 06:48:04;;;;;;;15.80;7.22;;;;;;;23.02;99.54;100456.00;5579682;31;34009;-69
2023/06/20 06:51:07;;;;;;;15.63;7.40;;;;;;;22.97;100.00;100459.44;5576269;31;33778;-69
2023/06/20 06:54:11;;;;;;;15.43;7.03;;;;;;;23.20;100.00;100459.25;5566145;32;34373;-68
2023/06/20 06:57:15;;;;;;;9.50;7.28;;;;;;;23.38;96.33;100461.66;5566618;32;34898;-69
2023/06/20 07:00:20;;;;;;;14.20;6.95;;;;;;;23.53;94.06;100455.66;5566430;32;33828;-70
2023/06/20 07:03:25;;;;;;;13.05;7.43;;;;;;;23.55;96.41;100458.13;5566386;31;33810;-69
2023/06/20 07:06:30;;;;;;;12.23;7.70;;;;;;;23.64;94.43;100462.03;5583863;31;33956;-70
2023/06/20 07:09:36;;;;;;;13.93;7.40;;;;;;;24.05;92.73;100460.66;5586182;31;34525;-70
2023/06/20 07:12:40;;;;;;;13.10;7.70;;;;;;;24.25;88.15;100469.03;5586366;31;34373;-69
2023/06/20 07:15:44;;;;;;;17.90;7.70;;;;;;;24.51;86.44;100465.47;5586224;31;35443;-69
2023/06/20 07:18:50;;;;;;;34.03;8.35;;;;;;;24.66;84.84;100462.09;5585107;31;33696;-69
2023/06/20 07:21:54;;;;;;;15.85;7.93;;;;;;;24.91;82.74;100469.66;5585692;31;33921;-68
2023/06/20 07:25:00;;;;;;;16.25;7.37;;;;;;;24.90;78.67;100466.12;5584902;31;33967;-69
2023/06/20 07:28:06;;;;;;;14.70;7.30;;;;;;;25.06;80.21;100467.87;5585343;31;34473;-68
2023/06/20 07:31:20;;;;;;;13.30;7.65;;;;;;;25.65;78.01;100478.59;5582232;31;33996;-69
2023/06/20 07:34:23;;;;;;;12.50;7.68;;;;;;;25.71;73.12;100474.78;5584035;31;33858;-69
2023/06/20 07:37:28;;;;;;;11.15;6.95;;;;;;;26.08;70.22;100477.37;5585627;31;34056;-69
2023/06/20 07:40:33;;;;;;;13.38;7.32;;;;;;;25.74;72.85;100484.31;5584099;31;34052;-70
2023/06/20 07:43:37;;;;;;;13.50;6.82;;;;;;;26.36;69.34;100487.00;5579372;31;33751;-70
2023/06/20 07:46:40;;;;;;;15.38;6.60;;;;;;;27.56;65.58;100485.34;5584216;31;33434;-70
2023/06/20 07:49:44;;;;;;;10.75;6.45;;;;;;;28.47;61.86;100476.75;5583699;31;34238;-70
2023/06/20 07:52:47;;;;;;;12.35;6.60;;;;;;;28.67;58.10;100477.69;5583903;31;33833;-71
2023/06/20 07:55:53;;;;;;;12.88;6.87;;;;;;;28.50;58.38;100470.72;5577064;31;34496;-71
2023/06/20 07:58:58;;;;;;;13.65;6.03;;;;;;;29.83;53.82;100475.75;5580812;31;34478;-70
2023/06/20 08:02:03;;;;;;;23.62;6.55;;;;;;;30.48;53.06;100482.28;5578776;31;33949;-70
2023/06/20 08:05:11;;;;;;;129.73;9.57;;;;;;;30.84;51.12;100482.53;5579287;31;34063;-71
2023/06/20 08:08:15;;;;;;;15.20;5.37;;;;;;;31.47;49.85;100480.84;5584251;31;33744;-71
2023/06/20 08:11:23;;;;;;;13.07;5.47;;;;;;;31.87;46.22;100479.25;5584054;31;34098;-70
2023/06/20 08:14:27;;;;;;;14.00;5.40;;;;;;;31.88;44.63;100488.28;5584943;31;33486;-71
2023/06/20 08:17:32;;;;;;;8.57;5.68;;;;;;;32.60;43.36;100493.81;5585037;31;33773;-71
2023/06/20 08:20:36;;;;;;;13.10;5.62;;;;;;;32.96;43.56;100491.03;5584316;31;34164;-71
2023/06/20 08:23:40;;;;;;;10.25;5.80;;;;;;;33.29;42.83;100497.06;5584406;31;34889;-72
2023/06/20 08:26:43;;;;;;;12.05;4.70;;;;;;;32.25;44.85;100492.72;5584443;31;33550;-71
2023/06/20 08:29:46;;;;;;;10.40;4.75;;;;;;;33.05;42.75;100487.22;5578911;31;34861;-71
2023/06/20 08:32:49;;;;;;;11.35;5.43;;;;;;;33.23;40.24;100487.34;5570462;31;34010;-71
2023/06/20 08:35:52;;;;;;;12.73;5.00;;;;;;;33.75;41.47;100480.13;5566975;31;32698;-71
2023/06/20 08:38:55;;;;;;;16.12;4.50;;;;;;;34.15;39.39;100478.91;5586764;31;33807;-71
2023/06/20 08:41:59;;;;;;;17.87;4.75;;;;;;;34.67;38.98;100485.28;5586953;31;34377;-72
2023/06/20 08:45:02;;;;;;;9.43;5.07;;;;;;;35.36;38.34;100484.34;5587010;31;33704;-72
2023/06/20 08:48:09;;;;;;;16.17;5.35;;;;;;;35.41;36.30;100479.44;5586167;31;33648;-70
2023/06/20 08:51:15;;;;;;;12.75;4.57;;;;;;;35.39;36.87;100478.16;5586204;31;34214;-71
2023/06/20 08:54:22;;;;;;;13.02;4.80;;;;;;;34.27;37.73;100470.87;5586456;31;32973;-69
2023/06/20 08:57:26;;;;;;;20.20;4.90;;;;;;;34.13;37.86;100469.38;5586245;31;34754;-70
2023/06/20 09:00:30;;;;;;;8.68;4.43;;;;;;;36.20;34.96;100473.19;5586714;31;34589;-69
2023/06/20 09:03:36;;;;;;;16.52;5.20;;;;;;;37.52;33.01;100478.72;5587793;31;34415;-70
2023/06/20 09:06:41;;;;;;;13.62;5.22;;;;;;;38.23;32.15;100468.75;5587064;31;33762;-71
2023/06/20 09:09:45;;;;;;;7.82;4.50;;;;;;;36.65;33.00;100461.47;5586886;31;33597;-72
2023/06/20 09:12:52;;;;;;;12.40;4.60;;;;;;;35.66;34.25;100462.00;5586046;31;33768;-70
2023/06/20 09:16:10;;;;;;;12.60;3.70;;;;;;;37.26;31.49;100460.47;5586130;31;33785;-69
2023/06/20 09:19:14;;;;;;;;;;;;;;;36.69;31.27;100456.88;5581491;31;33815;-69
2023/06/20 09:22:19;;;;;;;9.27;4.22;;;;;;;36.97;31.88;100455.09;5586564;31;34404;-69
2023/06/20 09:25:25;;;;;;;5.75;4.00;;;;;;;37.22;29.79;100461.50;5585868;31;33997;-69
2023/06/20 09:28:32;;;;;;;13.50;4.05;;;;;;;36.91;30.99;100468.31;5586092;31;33766;-68
2023/06/20 09:31:43;;;;;;;17.17;4.57;;;;;;;36.84;31.00;100468.06;5586586;31;34844;-69
2023/06/20 09:34:53;;;;;;;5.78;4.07;;;;;;;38.19;29.11;100453.97;5586928;31;34890;-70
2023/06/20 09:38:03;;;;;;;9.32;4.20;;;;;;;37.51;28.85;100461.28;5588218;31;34066;-68
2023/06/20 09:41:06;;;;;;;5.07;4.00;;;;;;;37.74;29.96;100461.66;5590414;31;34497;-70
2023/06/20 09:44:18;;;;;;;12.90;4.00;;;;;;;37.07;28.66;100462.12;5592183;31;33805;-68
2023/06/20 09:47:22;;;;;;;8.57;4.25;;;;;;;37.65;27.86;100459.00;5587959;31;33564;-70
2023/06/20 09:50:27;;;;;;;10.23;4.65;;;;;;;38.12;27.43;100456.53;5586866;31;34791;-71
2023/06/20 09:53:50;;;;;;;7.78;4.07;;;;;;;38.81;27.24;100468.41;5586140;31;33970;-70
2023/06/20 09:57:03;;;;;;;6.80;4.00;;;;;;;39.42;25.84;100460.53;5586528;31;33868;-69
2023/06/20 10:00:12;;;;;;;5.57;4.30;;;;;;;39.48;26.50;100459.09;5587024;31;33808;-70
2023/06/20 10:03:17;;;;;;;8.75;4.18;;;;;;;39.85;24.78;100457.63;5587466;31;33749;-72
2023/06/20 10:06:21;;;;;;;6.78;4.25;;;;;;;39.32;24.87;100467.44;5571272;31;33807;-71
2023/06/20 10:09:27;;;;;;;7.45;3.90;;;;;;;39.12;25.93;100451.81;5567189;32;34615;-71
2023/06/20 10:12:32;;;;;;;6.07;4.40;;;;;;;37.81;26.87;100451.59;5567491;32;34010;-70
2023/06/20 10:15:37;;;;;;;4.85;3.80;;;;;;;38.71;26.78;100453.09;5565787;31;33888;-69
2023/06/20 10:18:40;;;;;;;6.85;4.15;;;;;;;39.68;26.42;100451.63;5578855;31;35152;-70
2023/06/20 10:21:52;;;;;;;6.93;4.15;;;;;;;39.09;26.26;100447.00;5567010;32;34542;-69
2023/06/20 10:24:55;;;;;;;14.25;4.15;;;;;;;39.68;26.62;100435.78;5566189;32;33775;-72
2023/06/20 10:28:02;;;;;;;8.68;4.10;;;;;;;40.04;24.75;100445.72;5565756;32;33902;-69
2023/06/20 10:31:06;;;;;;;;;;;;;;;40.14;24.22;100442.34;5567223;32;34811;-70
2023/06/20 10:34:38;;;;;;;11.60;4.47;;;;;;;40.74;25.05;100440.84;5572980;31;34779;-69
2023/06/20 10:37:41;;;;;;;6.80;4.07;;;;;;;41.14;24.37;100439.59;5579269;31;33593;-69
2023/06/20 10:40:44;;;;;;;8.73;4.53;;;;;;;42.27;22.21;100437.72;5585402;31;33749;-69
2023/06/20 10:43:59;;;;;;;7.25;4.10;;;;;;;41.79;22.70;100429.06;5586460;31;33814;-70
2023/06/20 10:47:03;;;;;;;5.18;3.92;;;;;;;40.71;22.94;100435.22;5586351;31;33870;-69
2023/06/20 10:50:07;;;;;;;12.32;4.35;;;;;;;40.09;23.64;100431.53;5585077;31;35253;-70
2023/06/20 10:53:13;;;;;;;8.50;4.07;;;;;;;41.45;23.67;100428.19;5587738;31;33671;-71
2023/06/20 10:56:26;;;;;;;9.55;4.40;;;;;;;41.13;22.75;100432.41;5583965;31;34097;-69
2023/06/20 10:59:30;;;;;;;5.70;3.70;;;;;;;41.71;22.23;100427.37;5575835;31;32500;-71
2023/06/20 11:02:34;;;;;;;6.68;4.10;;;;;;;43.92;19.96;100429.28;5575908;31;33839;-70
2023/06/20 11:05:38;;;;;;;8.13;3.95;;;;;;;44.00;19.87;100422.53;5576218;31;35233;-71
2023/06/20 11:08:47;;;;;;;4.60;3.70;;;;;;;43.49;20.33;100411.44;5574851;31;33399;-71
2023/06/20 11:11:51;;;;;;;7.28;4.65;;;;;;;42.60;20.36;100414.59;5575283;31;34056;-70
2023/06/20 11:14:54;;;;;;;9.07;4.37;;;;;;;42.19;21.74;100410.91;5579915;31;34251;-70
2023/06/20 11:18:08;;;;;;;15.85;4.40;;;;;;;40.90;21.96;100415.69;5575767;31;33319;-70
2023/06/20 11:21:16;;;;;;;5.53;4.12;;;;;;;42.02;21.16;100406.75;5566285;32;33718;-70
2023/06/20 11:24:20;;;;;;;7.62;4.60;;;;;;;42.67;21.09;100407.13;5565925;32;34574;-71
2023/06/20 11:27:24;;;;;;;4.80;4.12;;;;;;;41.50;22.98;100410.34;5576722;31;34097;-71
2023/06/20 11:30:29;;;;;;;5.80;4.32;;;;;;;41.67;21.46;100395.09;5566370;32;33861;-71
2023/06/20 11:33:32;;;;;;;9.38;4.50;;;;;;;42.34;20.86;100405.16;5566577;32;33665;-70
2023/06/20 11:36:39;;;;;;;8.20;4.28;;;;;;;42.90;21.02;100396.56;5566595;32;33444;-70
2023/06/20 11:39:42;;;;;;;5.87;4.20;;;;;;;41.83;22.26;100384.56;5566168;32;33895;-69
2023/06/20 11:42:50;;;;;;;5.87;3.87;;;;;;;39.89;23.59;100386.25;5566534;31;34562;-69
2023/06/20 11:46:00;;;;;;;8.70;4.10;;;;;;;38.90;23.89;100383.88;5566061;32;33861;-70
2023/06/20 11:49:04;;;;;;;10.82;4.43;;;;;;;39.73;23.85;100387.47;5566160;32;34477;-67
2023/06/20 11:52:08;;;;;;;7.90;4.20;;;;;;;41.45;22.55;100382.81;5565971;32;34099;-67
2023/06/20 11:55:12;;;;;;;6.50;4.20;;;;;;;40.63;21.55;100380.63;5575334;31;33897;-66
2023/06/20 11:58:16;;;;;;;4.90;4.00;;;;;;;38.37;24.92;100374.09;5565816;32;33992;-66
2023/06/20 12:01:22;;;;;;;5.37;3.72;;;;;;;39.89;22.43;100374.38;5566042;32;34571;-67
2023/06/20 12:04:25;;;;;;;10.32;3.65;;;;;;;41.82;21.11;100374.59;5566931;31;33861;-67
2023/06/20 12:07:28;;;;;;;6.10;4.00;;;;;;;43.54;19.66;100377.53;5568622;32;33827;-68
2023/06/20 12:10:34;;;;;;;7.00;3.70;;;;;;;44.09;19.52;100372.63;5568262;32;33743;-68
2023/06/20 12:13:43;;;;;;;4.30;3.90;;;;;;;44.81;18.00;100382.81;5567677;32;33793;-68
2023/06/20 12:16:51;;;;;;;8.25;4.07;;;;;;;44.13;19.41;100376.25;5568652;32;33582;-69
2023/06/20 12:19:54;;;;;;;4.68;3.85;;;;;;;41.13;21.59;100360.03;5575294;31;34480;-67
2023/06/20 12:22:57;;;;;;;4.93;3.72;;;;;;;39.44;23.92;100353.50;5577419;31;33846;-67
2023/06/20 12:26:01;;;;;;;6.85;3.80;;;;;;;41.85;21.26;100354.31;5577900;31;34355;-67
2023/06/20 12:29:04;;;;;;;5.45;3.58;;;;;;;42.19;21.46;100347.59;5576519;31;34731;-67
2023/06/20 12:32:09;;;;;;;8.43;4.20;;;;;;;42.39;20.76;100346.25;5579284;31;34281;-68
2023/06/20 12:35:13;;;;;;;10.20;3.70;;;;;;;42.62;20.65;100357.22;5577186;31;34500;-69
2023/06/20 12:38:15;;;;;;;5.05;3.60;;;;;;;45.33;17.99;100355.97;5577796;31;33725;-68
2023/06/20 12:41:20;;;;;;;5.82;3.62;;;;;;;47.16;16.37;100349.00;5578712;31;34514;-68
2023/06/20 12:44:24;;;;;;;8.18;4.00;;;;;;;45.83;17.66;100339.06;5577635;31;33903;-68
2023/06/20 12:47:28;;;;;;;9.27;4.55;;;;;;;45.20;18.28;100345.63;5579980;31;33716;-67
2023/06/20 12:50:31;;;;;;;5.00;3.80;;;;;;;41.59;21.38;100341.22;5587580;31;33771;-67
2023/06/20 12:53:35;;;;;;;10.98;4.10;;;;;;;44.00;19.44;100347.03;5586608;31;33721;-68
2023/06/20 12:56:40;;;;;;;6.12;3.95;;;;;;;42.89;19.91;100336.38;5575453;31;33506;-69
2023/06/20 12:59:45;;;;;;;7.10;3.70;;;;;;;45.12;18.49;100333.62;5575664;31;32738;-70
2023/06/20 13:02:49;;;;;;;4.93;3.80;;;;;;;44.16;18.67;100329.91;5580585;31;34735;-68
2023/06/20 13:05:53;;;;;;;8.00;4.22;;;;;;;41.73;21.35;100324.72;5587585;31;33776;-67
2023/06/20 13:08:58;;;;;;;21.35;4.32;;;;;;;44.78;18.96;100329.63;5587501;31;33658;-67
2023/06/20 13:12:03;;;;;;;7.85;3.40;;;;;;;44.51;18.80;100320.78;5587585;31;33947;-68
2023/06/20 13:15:09;;;;;;;22.42;4.35;;;;;;;45.03;18.47;100324.81;5587404;31;34594;-67
2023/06/20 13:18:16;;;;;;;5.43;3.35;;;;;;;45.62;17.40;100323.09;5587535;31;33733;-67
2023/06/20 13:21:21;;;;;;;6.43;3.80;;;;;;;46.57;17.02;100321.03;5587348;31;33546;-68
2023/06/20 13:24:26;;;;;;;14.57;4.45;;;;;;;47.84;15.78;100327.34;5587221;31;34836;-68
2023/06/20 13:27:30;;;;;;;9.05;3.95;;;;;;;46.97;17.04;100317.47;5587100;31;34488;-68
2023/06/20 13:30:35;;;;;;;12.20;3.60;;;;;;;43.63;18.65;100310.94;5585748;31;35028;-68
2023/06/20 13:33:40;;;;;;;8.77;3.62;;;;;;;45.34;18.19;100309.16;5586606;31;34692;-67
2023/06/20 13:36:44;;;;;;;9.63;3.75;;;;;;;43.84;18.90;100307.41;5586279;31;33874;-68
2023/06/20 13:39:48;;;;;;;17.83;4.07;;;;;;;45.32;18.21;100301.16;5586979;31;33875;-67
2023/06/20 13:42:52;;;;;;;7.55;3.60;;;;;;;45.54;17.60;100303.91;5586871;31;33644;-68
2023/06/20 13:45:57;;;;;;;15.38;3.92;;;;;;;43.67;19.12;100305.37;5586913;31;33809;-68
2023/06/20 13:49:03;;;;;;;10.00;4.03;;;;;;;41.29;21.46;100298.63;5586682;31;33862;-68
2023/06/20 13:52:08;;;;;;;16.05;4.28;;;;;;;38.17;24.17;100303.06;5585696;31;34457;-68
2023/06/20 13:55:17;;;;;;;26.70;4.75;;;;;;;38.27;24.86;100300.59;5586413;31;32544;-68
2023/06/20 13:58:22;;;;;;;19.85;4.53;;;;;;;38.45;23.99;100300.28;5585315;31;34451;-68
2023/06/20 14:01:27;;;;;;;12.00;4.07;;;;;;;39.39;23.70;100289.94;5586338;31;34840;-68
2023/06/20 14:04:33;;;;;;;6.75;4.22;;;;;;;42.91;20.75;100297.69;5586341;31;34859;-69
2023/06/20 14:07:37;;;;;;;9.30;3.92;;;;;;;44.53;19.04;100301.63;5576568;31;33626;-69
2023/06/20 14:10:41;;;;;;;9.20;3.62;;;;;;;45.80;17.25;100298.59;5573887;31;33350;-69
2023/06/20 14:13:47;;;;;;;11.93;4.18;;;;;;;43.64;18.94;100301.34;5571807;31;33439;-68
2023/06/20 14:16:52;;;;;;;12.65;4.05;;;;;;;45.03;17.98;100294.03;5582505;31;34691;-68
2023/06/20 14:19:56;;;;;;;6.10;3.97;;;;;;;44.52;18.70;100297.22;5582068;31;33792;-69
2023/06/20 14:23:03;;;;;;;5.93;3.92;;;;;;;44.44;18.88;100293.63;5572732;31;33840;-68